This is the latest recevied weather packets stored in our database for station/object K4WCH. If no packets are shown the sender has not sent any weather packets the latest 10 day(s).
| Time | Temp. | Humidity | Pressure | Rain* | Wind** | Luminosity | Snow |
|---|---|---|---|---|---|---|---|
| 1787957855 | 25° C | 91% | 1016.9 hPa | 0 mm | - | 16 W/m² | - |
| 1787957548 | 25° C | 92% | 1016.7 hPa | 0 mm | - | 19 W/m² | - |
| 1787957244 | 25° C | 91% | 1016.4 hPa | 0 mm | - | 24 W/m² | - |
| 1787956939 | 25° C | 92% | 1016.6 hPa | 0 mm | - | 31 W/m² | - |
| 1787956638 | 25° C | 92% | 1016.7 hPa | 0 mm | - | 41 W/m² | - |
| 1787956333 | 25° C | 92% | 1016.9 hPa | 0 mm | - | 55 W/m² | - |
| 1787956036 | 25.56° C | 93% | 1016.6 hPa | 0 mm | - | 73 W/m² | - |
| 1787955724 | 25° C | 92% | 1016.5 hPa | 0 mm | - | 94 W/m² | - |
| 1787955420 | 25° C | 93% | 1016.6 hPa | 0 mm | - | 108 W/m² | - |
| 1787955118 | 25° C | 92% | 1016.7 hPa | 0 mm | - | 115 W/m² | - |
| 1787954814 | 25° C | 93% | 1016.7 hPa | 0 mm | - | 116 W/m² | - |
| 1787954510 | 25° C | 93% | 1016.4 hPa | 0 mm | - | 112 W/m² | - |
| 1787954210 | 25° C | 92% | 1016.5 hPa | 0 mm | - | 107 W/m² | - |
| 1787953910 | 25° C | 93% | 1016.8 hPa | 0 mm | - | 105 W/m² | - |
| 1787953609 | 24.44° C | 93% | 1016.8 hPa | 0.51 mm | - | 94 W/m² | - |
| 1787953304 | 24.44° C | 93% | 1016.6 hPa | 1.78 mm | - | 67 W/m² | - |
| 1787953002 | 24.44° C | 92% | 1016.8 hPa | 6.6 mm | - | 55 W/m² | - |
| 1787952702 | 24.44° C | 92% | 1016.9 hPa | 10.67 mm | - | 35 W/m² | - |
| 1787952402 | 24.44° C | 92% | 1017 hPa | 20.32 mm | - | 20 W/m² | - |
| 1787952107 | 25° C | 90% | 1016.9 hPa | 12.7 mm | - | 18 W/m² | - |
| 1787951797 | 26.11° C | 84% | 1016.9 hPa | 2.29 mm | - | 19 W/m² | - |
| 1787951493 | 27.78° C | 76% | 1016.5 hPa | 0 mm | - | 24 W/m² | - |
| 1787951189 | 31.67° C | 61% | 1016.5 hPa | 0 mm | - | 31 W/m² | - |
| 1787950885 | 32.78° C | 57% | 1016 hPa | 0 mm | - | 61 W/m² | - |
| 1787950580 | 33.33° C | 55% | 1015.9 hPa | 0 mm | - | 89 W/m² | - |
* Rain latest hour (hover to see other rain measurements)
** Current wind speed in m/s (hover to see current wind gust speed)